createdAt,value
2019-06-01T00:02:10.016Z,91.30
2019-06-01T00:04:38.685Z,91.60
2019-06-01T00:07:06.314Z,91.60
2019-06-01T00:09:33.884Z,91.50
2019-06-01T00:12:01.315Z,91.10
2019-06-01T00:14:28.970Z,91.00
2019-06-01T00:16:56.420Z,91.00
2019-06-01T00:19:23.900Z,91.10
2019-06-01T00:21:52.284Z,91.20
2019-06-01T00:24:19.865Z,91.20
2019-06-01T00:26:47.906Z,91.10
2019-06-01T00:29:15.544Z,91.10
2019-06-01T00:31:43.134Z,91.30
2019-06-01T00:34:10.833Z,91.40
2019-06-01T00:36:39.510Z,91.70
2019-06-01T00:39:07.033Z,91.80
2019-06-01T00:41:34.639Z,91.90
2019-06-01T00:44:02.088Z,91.90
2019-06-01T00:46:29.561Z,92.30
2019-06-01T00:48:57.075Z,92.30
2019-06-01T00:51:24.573Z,92.40
2019-06-01T00:53:53.513Z,92.60
2019-06-01T00:56:21.098Z,92.70
2019-06-01T00:58:49.716Z,92.90
2019-06-01T01:01:17.423Z,92.80
2019-06-01T01:03:46.001Z,92.70
2019-06-01T01:06:13.824Z,92.70
2019-06-01T01:08:41.287Z,92.80
2019-06-01T01:11:08.811Z,92.70
2019-06-01T01:13:36.249Z,92.60
2019-06-01T01:16:03.880Z,92.50
2019-06-01T01:18:31.275Z,92.50
2019-06-01T01:20:58.763Z,92.60
2019-06-01T01:23:26.232Z,92.50
2019-06-01T01:25:54.576Z,92.50
2019-06-01T01:28:23.958Z,92.60
2019-06-01T01:31:03.658Z,92.60
2019-06-01T01:33:21.024Z,92.40
2019-06-01T01:35:49.674Z,92.40
2019-06-01T01:38:17.226Z,92.40
2019-06-01T01:40:45.729Z,92.50
2019-06-01T01:43:13.250Z,92.30
2019-06-01T01:45:41.106Z,92.60
2019-06-01T01:48:08.589Z,92.90
2019-06-01T01:50:36.082Z,93.10
2019-06-01T01:53:03.863Z,93.20
2019-06-01T01:55:31.840Z,93.20
2019-06-01T01:57:59.577Z,93.30
2019-06-01T02:00:40.611Z,93.40
2019-06-01T02:03:08.704Z,93.70
2019-06-01T02:05:36.169Z,93.90
2019-06-01T02:08:06.074Z,94.20
2019-06-01T02:10:33.618Z,94.40
2019-06-01T02:13:02.140Z,94.50
2019-06-01T02:15:29.594Z,94.70
2019-06-01T02:17:58.167Z,94.70
2019-06-01T02:20:25.831Z,94.70
2019-06-01T02:22:54.599Z,94.60
2019-06-01T02:25:22.276Z,94.60
2019-06-01T02:27:49.829Z,94.60
2019-06-01T02:30:18.366Z,94.70
2019-06-01T02:32:45.910Z,94.80
2019-06-01T02:35:13.841Z,94.80
2019-06-01T02:37:41.384Z,94.80
2019-06-01T02:40:09.784Z,94.70
2019-06-01T02:42:37.344Z,94.70
2019-06-01T02:45:09.686Z,94.80
2019-06-01T02:47:37.142Z,94.90
2019-06-01T02:50:06.409Z,95.40
2019-06-01T02:52:34.091Z,95.60
2019-06-01T02:55:02.376Z,95.70
2019-06-01T02:57:30.386Z,95.90
2019-06-01T02:59:58.412Z,95.90
2019-06-01T03:02:26.297Z,95.80
2019-06-01T03:04:54.061Z,95.80
2019-06-01T03:07:22.385Z,95.60
2019-06-01T03:09:50.433Z,95.40
2019-06-01T03:12:20.905Z,95.20
2019-06-01T03:14:50.385Z,95.10
2019-06-01T03:17:21.427Z,95.20
2019-06-01T03:19:51.075Z,95.20
2019-06-01T03:22:20.687Z,95.20
2019-06-01T03:24:51.984Z,95.20
2019-06-01T03:27:21.942Z,95.40
2019-06-01T03:29:55.283Z,95.50
2019-06-01T03:32:35.022Z,95.60
2019-06-01T03:34:52.200Z,95.50
2019-06-01T03:37:19.777Z,95.70
2019-06-01T03:39:47.676Z,95.70
2019-06-01T03:42:15.813Z,95.90
2019-06-01T03:44:43.290Z,95.90
2019-06-01T03:47:11.882Z,95.80
2019-06-01T03:49:39.573Z,95.60
2019-06-01T03:52:07.097Z,95.50
2019-06-01T03:54:34.579Z,95.40
2019-06-01T03:57:03.594Z,95.30
2019-06-01T03:59:31.412Z,95.40
2019-06-01T04:01:58.938Z,95.30
2019-06-01T04:04:26.609Z,95.30
2019-06-01T04:06:54.090Z,95.20
2019-06-01T04:09:21.504Z,95.30
2019-06-01T04:11:48.943Z,94.90
2019-06-01T04:14:16.548Z,94.70
2019-06-01T04:16:44.094Z,94.60
2019-06-01T04:19:12.181Z,94.30
2019-06-01T04:21:39.960Z,94.30
2019-06-01T04:24:08.048Z,94.20
2019-06-01T04:26:35.627Z,94.00
2019-06-01T04:29:04.869Z,93.80
2019-06-01T04:31:32.781Z,93.50
2019-06-01T04:34:00.193Z,93.10
2019-06-01T04:36:41.506Z,92.80
2019-06-01T04:39:09.448Z,92.70
2019-06-01T04:41:37.129Z,92.20
2019-06-01T04:44:05.904Z,91.80
2019-06-01T04:46:33.477Z,91.60
2019-06-01T04:49:00.944Z,91.60
2019-06-01T04:51:28.407Z,91.30
2019-06-01T04:53:55.894Z,91.30
2019-06-01T04:56:23.352Z,91.20
2019-06-01T04:58:50.802Z,91.30
2019-06-01T05:01:18.448Z,91.40
2019-06-01T05:03:45.890Z,90.70
2019-06-01T05:06:13.727Z,90.60
2019-06-01T05:08:41.199Z,90.30
2019-06-01T05:11:09.895Z,90.60
2019-06-01T05:13:37.860Z,90.30
2019-06-01T05:16:05.898Z,90.40
2019-06-01T05:18:33.469Z,90.90
2019-06-01T05:21:00.913Z,90.50
2019-06-01T05:23:28.417Z,89.90
2019-06-01T05:25:55.904Z,89.70
2019-06-01T05:28:23.233Z,89.20
2019-06-01T05:30:50.707Z,88.40
2019-06-01T05:33:35.341Z,87.30
2019-06-01T05:35:47.859Z,86.90
2019-06-01T05:38:16.538Z,86.80
2019-06-01T05:40:44.329Z,86.60
2019-06-01T05:43:17.185Z,85.50
2019-06-01T05:45:42.277Z,84.00
2019-06-01T05:48:13.039Z,84.00
2019-06-01T05:50:39.078Z,82.70
2019-06-01T05:53:06.527Z,83.40
2019-06-01T05:55:34.261Z,83.40
2019-06-01T05:58:01.870Z,82.80
2019-06-01T06:00:42.394Z,82.80
2019-06-01T06:03:12.890Z,81.00
2019-06-01T06:05:39.538Z,79.90
2019-06-01T06:08:07.126Z,80.20
2019-06-01T06:10:34.573Z,78.70
2019-06-01T06:13:02.021Z,78.40
2019-06-01T06:15:29.465Z,78.40
2019-06-01T06:17:56.890Z,77.30
2019-06-01T06:20:24.457Z,78.00
2019-06-01T06:22:52.264Z,76.10
2019-06-01T06:25:20.027Z,77.60
2019-06-01T06:27:47.640Z,75.80
2019-06-01T06:30:15.455Z,74.80
2019-06-01T06:32:42.879Z,73.70
2019-06-01T06:35:10.917Z,74.80
2019-06-01T06:37:42.257Z,73.50
2019-06-01T06:40:09.206Z,72.20
2019-06-01T06:42:36.657Z,72.20
2019-06-01T06:45:04.318Z,71.10
2019-06-01T06:47:31.819Z,71.70
2019-06-01T06:49:59.304Z,71.50
2019-06-01T06:52:26.937Z,70.90
2019-06-01T06:54:54.379Z,71.50
2019-06-01T06:57:22.229Z,71.50
2019-06-01T06:59:49.717Z,70.70
2019-06-01T07:02:17.174Z,66.10
2019-06-01T07:04:44.878Z,64.80
2019-06-01T07:07:12.497Z,65.30
2019-06-01T07:09:40.147Z,66.30
2019-06-01T07:12:07.589Z,63.80
2019-06-01T07:14:35.134Z,62.20
2019-06-01T07:17:02.750Z,63.10
2019-06-01T07:19:30.355Z,62.50
2019-06-01T07:21:58.811Z,64.40
2019-06-01T07:24:26.390Z,63.80
2019-06-01T07:26:54.095Z,65.00
2019-06-01T07:29:22.093Z,62.70
2019-06-01T07:31:50.029Z,61.40
2019-06-01T07:34:30.713Z,61.20
2019-06-01T07:36:46.903Z,58.70
2019-06-01T07:39:14.407Z,57.70
2019-06-01T07:41:41.898Z,54.90
2019-06-01T07:44:09.431Z,54.30
2019-06-01T07:46:36.951Z,55.40
2019-06-01T07:49:04.402Z,58.40
2019-06-01T07:51:31.873Z,56.30
2019-06-01T07:53:59.408Z,55.40
2019-06-01T07:56:28.573Z,54.90
2019-06-01T07:58:57.827Z,54.90
2019-06-01T08:01:27.136Z,53.90
2019-06-01T08:03:54.777Z,54.90
2019-06-01T08:06:23.803Z,53.90
2019-06-01T08:08:51.773Z,54.50
2019-06-01T08:11:19.281Z,54.30
2019-06-01T08:13:46.757Z,51.70
2019-06-01T08:16:14.315Z,49.70
2019-06-01T08:18:42.714Z,51.00
2019-06-01T08:21:11.317Z,49.60
2019-06-01T08:23:38.784Z,46.80
2019-06-01T08:26:06.250Z,45.60
2019-06-01T08:28:33.692Z,49.00
2019-06-01T08:31:01.248Z,48.70
2019-06-01T08:33:32.902Z,47.90
2019-06-01T08:35:58.204Z,43.80
2019-06-01T08:38:25.708Z,41.20
2019-06-01T08:40:53.186Z,43.50
2019-06-01T08:43:20.934Z,40.90
2019-06-01T08:45:48.485Z,43.00
2019-06-01T08:48:15.975Z,42.10
2019-06-01T08:50:45.945Z,38.00
2019-06-01T08:53:12.779Z,36.60
2019-06-01T08:55:40.267Z,37.90
2019-06-01T08:58:07.751Z,40.10
2019-06-01T09:00:35.416Z,37.30
2019-06-01T09:03:02.937Z,39.80
2019-06-01T09:05:31.521Z,34.40
2019-06-01T09:07:59.248Z,36.80
2019-06-01T09:10:27.445Z,35.60
2019-06-01T09:12:55.169Z,34.10
2019-06-01T09:15:22.643Z,33.00
2019-06-01T09:17:50.172Z,34.10
2019-06-01T09:20:17.611Z,32.80
2019-06-01T09:22:48.019Z,34.40
2019-06-01T09:25:14.984Z,34.10
2019-06-01T09:27:42.517Z,31.60
2019-06-01T09:30:10.223Z,35.30
2019-06-01T09:32:38.034Z,36.00
2019-06-01T09:35:07.118Z,32.80
2019-06-01T09:37:35.005Z,33.30
2019-06-01T09:40:03.307Z,32.40
2019-06-01T09:42:30.911Z,31.00
2019-06-01T09:44:58.492Z,32.10
2019-06-01T09:47:27.084Z,29.00
2019-06-01T09:49:54.913Z,31.60
2019-06-01T09:52:22.393Z,32.10
2019-06-01T09:54:49.902Z,29.40
2019-06-01T09:57:17.545Z,30.10
2019-06-01T09:59:45.026Z,29.70
2019-06-01T10:02:12.604Z,29.40
2019-06-01T10:04:40.011Z,30.10
2019-06-01T10:07:07.466Z,32.50
2019-06-01T10:09:35.767Z,28.80
2019-06-01T10:12:29.787Z,29.20
2019-06-01T10:14:57.612Z,32.80
2019-06-01T10:17:25.087Z,29.30
2019-06-01T10:19:58.595Z,29.80
2019-06-01T10:22:28.296Z,28.90
2019-06-01T10:24:55.895Z,29.30
2019-06-01T10:27:23.517Z,30.90
2019-06-01T10:29:51.708Z,29.40
2019-06-01T10:32:19.780Z,30.60
2019-06-01T10:34:47.990Z,29.80
2019-06-01T10:37:16.343Z,29.80
2019-06-01T10:39:44.144Z,29.20
2019-06-01T10:42:22.657Z,28.00
2019-06-01T10:44:50.581Z,28.30
2019-06-01T10:47:18.188Z,27.10
2019-06-01T10:49:46.126Z,26.00
2019-06-01T10:52:13.986Z,26.30
2019-06-01T10:54:42.471Z,26.40
2019-06-01T10:57:10.205Z,27.70
2019-06-01T10:59:38.437Z,27.10
2019-06-01T11:02:06.551Z,27.30
2019-06-01T11:04:34.890Z,26.80
2019-06-01T11:07:02.540Z,25.30
2019-06-01T11:09:30.119Z,25.90
2019-06-01T11:11:58.844Z,27.70
2019-06-01T11:14:26.487Z,27.20
2019-06-01T11:16:56.542Z,27.20
2019-06-01T11:19:23.481Z,27.30
2019-06-01T11:21:51.242Z,27.40
2019-06-01T11:24:18.767Z,26.40
2019-06-01T11:26:46.268Z,25.70
2019-06-01T11:29:13.755Z,25.90
2019-06-01T11:31:42.125Z,26.60
2019-06-01T11:34:09.873Z,27.20
2019-06-01T11:36:54.064Z,26.40
2019-06-01T11:39:07.048Z,25.50
2019-06-01T11:41:34.632Z,24.80
2019-06-01T11:44:02.245Z,25.90
2019-06-01T11:46:29.764Z,26.30
2019-06-01T11:48:57.381Z,25.50
2019-06-01T11:51:24.944Z,25.10
2019-06-01T11:53:52.439Z,25.20
2019-06-01T11:56:19.999Z,24.20
2019-06-01T11:58:47.486Z,24.10
2019-06-01T12:01:14.975Z,23.50
2019-06-01T12:03:42.481Z,24.50
2019-06-01T12:06:11.999Z,24.20
2019-06-01T12:08:39.966Z,24.00
2019-06-01T12:11:07.598Z,24.80
2019-06-01T12:13:36.018Z,24.80
2019-06-01T12:16:03.767Z,25.10
2019-06-01T12:18:31.264Z,26.30
2019-06-01T12:20:58.834Z,26.30
2019-06-01T12:23:26.275Z,24.60
2019-06-01T12:25:53.777Z,24.60
2019-06-01T12:28:21.416Z,23.90
2019-06-01T12:30:48.897Z,24.70
2019-06-01T12:33:16.499Z,23.90
2019-06-01T12:35:44.077Z,24.50
2019-06-01T12:38:11.997Z,24.60
2019-06-01T12:40:39.502Z,26.30
2019-06-01T12:43:08.113Z,26.40
2019-06-01T12:45:35.625Z,25.00
2019-06-01T12:48:03.527Z,25.60
2019-06-01T12:50:31.070Z,24.40
2019-06-01T12:52:59.567Z,25.00
2019-06-01T12:55:27.167Z,23.70
2019-06-01T12:57:54.652Z,24.90
2019-06-01T13:00:22.423Z,25.40
2019-06-01T13:03:01.907Z,25.20
2019-06-01T13:05:19.887Z,23.60
2019-06-01T13:07:57.524Z,24.30
2019-06-01T13:10:17.985Z,24.80
2019-06-01T13:12:45.465Z,24.10
2019-06-01T13:15:13.324Z,24.90
2019-06-01T13:17:41.090Z,27.70
2019-06-01T13:20:08.600Z,27.00
2019-06-01T13:22:36.067Z,27.10
2019-06-01T13:25:04.212Z,27.00
2019-06-01T13:27:31.705Z,27.00
2019-06-01T13:29:59.143Z,25.60
2019-06-01T13:32:26.670Z,25.70
2019-06-01T13:34:54.350Z,25.70
2019-06-01T13:37:22.043Z,26.30
2019-06-01T13:39:55.989Z,25.00
2019-06-01T13:42:20.429Z,25.30
2019-06-01T13:44:49.422Z,24.60
2019-06-01T13:47:17.180Z,23.90
2019-06-01T13:49:46.422Z,26.00
2019-06-01T13:52:14.172Z,25.40
2019-06-01T13:54:41.691Z,26.00
2019-06-01T13:57:09.345Z,26.90
2019-06-01T13:59:38.198Z,24.80
2019-06-01T14:02:05.799Z,24.30
2019-06-01T14:04:33.335Z,26.20
2019-06-01T14:07:00.827Z,25.90
2019-06-01T14:09:28.318Z,29.40
2019-06-01T14:11:55.799Z,26.70
2019-06-01T14:14:23.336Z,25.30
2019-06-01T14:16:51.755Z,25.20
2019-06-01T14:19:19.561Z,25.50
2019-06-01T14:21:47.771Z,26.60
2019-06-01T14:24:15.490Z,26.00
2019-06-01T14:26:43.093Z,29.00
2019-06-01T14:29:10.618Z,27.30
2019-06-01T14:31:39.036Z,24.90
2019-06-01T14:34:06.639Z,26.00
2019-06-01T14:36:34.335Z,25.20
2019-06-01T14:39:01.818Z,25.20
2019-06-01T14:41:31.326Z,26.20
2019-06-01T14:43:58.906Z,25.90
2019-06-01T14:46:26.410Z,25.80
2019-06-01T14:48:54.024Z,25.80
2019-06-01T14:51:21.479Z,26.20
2019-06-01T14:53:49.530Z,25.30
2019-06-01T14:56:17.300Z,26.70
2019-06-01T14:58:44.916Z,26.80
2019-06-01T15:01:12.472Z,25.70
2019-06-01T15:03:40.006Z,25.00
2019-06-01T15:06:07.604Z,24.80
2019-06-01T15:08:35.180Z,24.90
2019-06-01T15:11:02.819Z,25.60
2019-06-01T15:13:30.391Z,27.70
2019-06-01T15:15:57.910Z,26.20
2019-06-01T15:18:25.573Z,28.60
2019-06-01T15:20:53.803Z,26.50
2019-06-01T15:23:21.793Z,26.90
2019-06-01T15:25:50.256Z,27.80
2019-06-01T15:28:18.014Z,26.90
2019-06-01T15:30:47.195Z,25.60
2019-06-01T15:33:15.713Z,27.40
2019-06-01T15:35:43.333Z,27.40
2019-06-01T15:38:10.983Z,27.30
2019-06-01T15:40:38.692Z,28.20
2019-06-01T15:43:06.212Z,26.70
2019-06-01T15:45:33.794Z,27.20
2019-06-01T15:48:02.418Z,26.40
2019-06-01T15:50:31.254Z,28.30
2019-06-01T15:52:59.714Z,27.80
2019-06-01T15:55:27.453Z,28.00
2019-06-01T15:57:58.518Z,28.50
2019-06-01T16:00:26.309Z,29.20
2019-06-01T16:02:54.814Z,28.10
2019-06-01T16:05:22.453Z,28.80
2019-06-01T16:07:50.021Z,27.40
2019-06-01T16:10:17.568Z,29.40
2019-06-01T16:12:45.124Z,28.60
2019-06-01T16:15:13.228Z,29.30
2019-06-01T16:17:40.971Z,28.10
2019-06-01T16:20:09.176Z,27.70
2019-06-01T16:22:37.015Z,27.70
2019-06-01T16:25:05.037Z,27.80
2019-06-01T16:27:32.575Z,27.50
2019-06-01T16:30:01.746Z,26.80
2019-06-01T16:32:31.296Z,28.30
2019-06-01T16:35:01.048Z,27.80
2019-06-01T16:37:30.145Z,27.40
2019-06-01T16:40:02.737Z,28.90
2019-06-01T16:42:27.852Z,29.20
2019-06-01T16:44:55.754Z,29.30
2019-06-01T16:47:23.406Z,28.90
2019-06-01T16:49:51.114Z,29.20
2019-06-01T16:52:18.746Z,28.10
2019-06-01T16:54:46.944Z,28.00
2019-06-01T16:57:14.627Z,29.50
2019-06-01T16:59:42.214Z,29.90
2019-06-01T17:02:09.897Z,29.70
2019-06-01T17:04:38.526Z,29.20
2019-06-01T17:07:08.517Z,29.60
2019-06-01T17:09:35.382Z,30.40
2019-06-01T17:12:03.200Z,31.20
2019-06-01T17:14:31.362Z,31.20
2019-06-01T17:16:59.061Z,31.80
2019-06-01T17:19:26.614Z,33.10
2019-06-01T17:21:54.210Z,32.80
2019-06-01T17:24:21.703Z,34.20
2019-06-01T17:26:49.265Z,33.30
2019-06-01T17:29:16.756Z,33.70
2019-06-01T17:31:53.899Z,33.10
2019-06-01T17:34:14.148Z,33.40
2019-06-01T17:36:41.616Z,34.10
2019-06-01T17:39:09.077Z,33.40
2019-06-01T17:41:36.556Z,34.40
2019-06-01T17:44:04.727Z,34.70
2019-06-01T17:46:32.505Z,33.70
2019-06-01T17:49:02.057Z,34.80
2019-06-01T17:51:31.906Z,34.70
2019-06-01T17:53:59.272Z,34.40
2019-06-01T17:56:26.840Z,35.10
2019-06-01T17:58:54.468Z,35.40
2019-06-01T18:01:22.079Z,36.20
2019-06-01T18:03:49.599Z,37.30
2019-06-01T18:06:22.050Z,38.00
2019-06-01T18:08:56.154Z,37.90
2019-06-01T18:11:23.847Z,38.20
2019-06-01T18:13:51.511Z,38.20
2019-06-01T18:16:19.324Z,38.90
2019-06-01T18:18:47.293Z,39.80
2019-06-01T18:21:15.041Z,40.80
2019-06-01T18:23:42.646Z,40.90
2019-06-01T18:26:10.986Z,41.20
2019-06-01T18:28:44.861Z,41.50
2019-06-01T18:31:12.894Z,40.50
2019-06-01T18:33:40.871Z,40.10
2019-06-01T18:36:09.522Z,39.80
2019-06-01T18:38:37.188Z,40.10
2019-06-01T18:41:11.614Z,41.10
2019-06-01T18:43:34.386Z,41.80
2019-06-01T18:46:03.609Z,42.40
2019-06-01T18:48:31.763Z,42.40
2019-06-01T18:50:59.687Z,43.80
2019-06-01T18:53:27.675Z,44.60
2019-06-01T18:55:55.611Z,45.30
2019-06-01T18:58:23.633Z,45.30
2019-06-01T19:00:51.342Z,46.50
2019-06-01T19:03:19.973Z,47.00
2019-06-01T19:05:47.448Z,48.20
2019-06-01T19:08:16.197Z,48.70
2019-06-01T19:10:45.191Z,49.40
2019-06-01T19:13:13.962Z,50.20
2019-06-01T19:15:41.654Z,49.90
2019-06-01T19:18:10.348Z,50.70
2019-06-01T19:20:38.269Z,49.70
2019-06-01T19:23:06.609Z,51.00
2019-06-01T19:25:34.508Z,51.60
2019-06-01T19:28:02.187Z,51.60
2019-06-01T19:30:36.362Z,52.50
2019-06-01T19:33:06.669Z,54.00
2019-06-01T19:35:34.503Z,54.50
2019-06-01T19:38:02.444Z,53.90
2019-06-01T19:40:34.860Z,54.20
2019-06-01T19:43:02.974Z,55.70
2019-06-01T19:45:30.629Z,56.70
2019-06-01T19:47:58.176Z,57.50
2019-06-01T19:50:25.736Z,56.70
2019-06-01T19:52:53.276Z,57.70
2019-06-01T19:55:21.160Z,58.10
2019-06-01T19:57:48.777Z,58.70
2019-06-01T20:00:16.542Z,59.30
2019-06-01T20:02:44.148Z,60.30
2019-06-01T20:05:12.945Z,60.90
2019-06-01T20:07:40.670Z,59.80
2019-06-01T20:10:10.051Z,60.50
2019-06-01T20:12:38.172Z,62.00
2019-06-01T20:15:07.017Z,63.10
2019-06-01T20:17:34.566Z,63.80
2019-06-01T20:20:02.288Z,64.40
2019-06-01T20:22:31.796Z,65.50
2019-06-01T20:24:59.326Z,65.70
2019-06-01T20:27:26.889Z,66.40
2019-06-01T20:29:54.973Z,67.20
2019-06-01T20:32:22.679Z,67.20
2019-06-01T20:34:50.206Z,67.20
2019-06-01T20:37:18.155Z,67.20
2019-06-01T20:39:45.679Z,68.30
2019-06-01T20:42:22.129Z,68.70
2019-06-01T20:44:42.510Z,70.00
2019-06-01T20:47:09.973Z,70.90
2019-06-01T20:49:37.601Z,71.30
2019-06-01T20:52:05.080Z,71.80
2019-06-01T20:54:32.670Z,71.80
2019-06-01T20:57:00.137Z,70.90
2019-06-01T20:59:27.654Z,71.10
2019-06-01T21:01:55.170Z,71.30
2019-06-01T21:04:22.669Z,71.80
2019-06-01T21:06:50.296Z,72.80
2019-06-01T21:09:17.871Z,74.10
2019-06-01T21:11:45.541Z,74.50
2019-06-01T21:14:13.856Z,74.60
2019-06-01T21:16:41.537Z,74.60
2019-06-01T21:19:09.022Z,74.80
2019-06-01T21:21:36.581Z,75.00
2019-06-01T21:24:04.267Z,75.90
2019-06-01T21:26:31.725Z,76.30
2019-06-01T21:28:59.162Z,76.10
2019-06-01T21:31:26.615Z,76.10
2019-06-01T21:33:54.095Z,76.30
2019-06-01T21:36:21.613Z,76.90
2019-06-01T21:38:49.037Z,77.30
2019-06-01T21:41:17.489Z,77.40
2019-06-01T21:43:45.195Z,78.00
2019-06-01T21:46:12.634Z,78.00
2019-06-01T21:48:40.122Z,78.60
2019-06-01T21:51:07.694Z,78.90
2019-06-01T21:53:35.157Z,79.10
2019-06-01T21:56:02.670Z,79.30
2019-06-01T21:58:30.253Z,78.90
2019-06-01T22:00:57.825Z,79.10
2019-06-01T22:03:25.669Z,79.30
2019-06-01T22:05:53.227Z,79.10
2019-06-01T22:08:21.170Z,79.30
2019-06-01T22:10:48.906Z,79.50
2019-06-01T22:13:19.280Z,79.50
2019-06-01T22:15:45.793Z,79.90
2019-06-01T22:18:13.273Z,79.90
2019-06-01T22:20:40.754Z,80.40
2019-06-01T22:23:11.503Z,80.80
2019-06-01T22:25:37.706Z,81.00
2019-06-01T22:28:05.207Z,81.20
2019-06-01T22:30:32.656Z,81.50
2019-06-01T22:33:00.283Z,81.70
2019-06-01T22:35:28.813Z,81.90
2019-06-01T22:37:56.677Z,82.50
2019-06-01T22:40:25.266Z,82.50
2019-06-01T22:42:52.766Z,83.00
2019-06-01T22:45:20.194Z,83.20
2019-06-01T22:47:47.743Z,83.20
2019-06-01T22:50:15.164Z,83.40
2019-06-01T22:52:42.757Z,83.20
2019-06-01T22:55:10.373Z,83.00
2019-06-01T22:57:37.890Z,83.40
2019-06-01T23:00:05.785Z,83.60
2019-06-01T23:02:33.608Z,83.80
2019-06-01T23:05:01.106Z,84.10
2019-06-01T23:07:29.260Z,84.50
2019-06-01T23:09:56.986Z,84.70
2019-06-01T23:12:25.449Z,85.30
2019-06-01T23:14:53.082Z,85.60
2019-06-01T23:17:21.531Z,86.40
2019-06-01T23:19:49.054Z,86.60
2019-06-01T23:22:16.481Z,86.60
2019-06-01T23:24:43.978Z,86.80
2019-06-01T23:27:11.496Z,86.80
2019-06-01T23:29:39.777Z,86.90
2019-06-01T23:32:07.247Z,87.10
2019-06-01T23:34:34.866Z,86.90
2019-06-01T23:37:02.345Z,86.90
2019-06-01T23:39:30.990Z,87.50
2019-06-01T23:41:58.452Z,87.90
2019-06-01T23:44:29.489Z,88.40
2019-06-01T23:46:55.457Z,88.80
2019-06-01T23:49:23.149Z,89.00
2019-06-01T23:51:50.714Z,89.20
2019-06-01T23:54:18.154Z,89.60
2019-06-01T23:56:45.674Z,89.70
2019-06-01T23:59:13.226Z,89.90
